createdAt,value
2022-09-14T00:01:34.603Z,68.43
2022-09-14T00:04:06.105Z,68.20
2022-09-14T00:06:33.613Z,68.77
2022-09-14T00:09:01.432Z,68.21
2022-09-14T00:11:32.101Z,67.60
2022-09-14T00:14:00.949Z,68.43
2022-09-14T00:16:31.516Z,68.31
2022-09-14T00:19:06.118Z,68.75
2022-09-14T00:21:38.782Z,68.74
2022-09-14T00:24:09.999Z,68.34
2022-09-14T00:26:38.025Z,67.67
2022-09-14T00:29:05.982Z,67.97
2022-09-14T00:31:37.107Z,68.14
2022-09-14T00:34:07.915Z,68.27
2022-09-14T00:36:40.430Z,68.64
2022-09-14T00:39:08.830Z,68.42
2022-09-14T00:41:39.236Z,68.88
2022-09-14T00:44:26.807Z,69.42
2022-09-14T00:47:00.592Z,68.85
2022-09-14T00:49:32.950Z,69.26
2022-09-14T00:52:34.116Z,69.17
2022-09-14T00:55:08.608Z,68.96
2022-09-14T00:57:41.803Z,69.34
2022-09-14T01:00:11.534Z,69.67
2022-09-14T01:02:39.444Z,68.94
2022-09-14T01:05:08.964Z,69.28
2022-09-14T01:07:53.785Z,68.89
2022-09-14T01:10:34.565Z,67.31
2022-09-14T01:13:19.969Z,67.31
2022-09-14T01:16:02.604Z,67.59
2022-09-14T01:18:37.957Z,68.48
2022-09-14T01:21:21.488Z,68.50
2022-09-14T01:24:07.369Z,69.24
2022-09-14T01:26:54.025Z,69.51
2022-09-14T01:29:49.511Z,68.92
2022-09-14T01:32:31.295Z,69.00
2022-09-14T01:35:15.793Z,69.35
2022-09-14T01:37:51.944Z,69.42
2022-09-14T01:40:46.402Z,68.83
2022-09-14T01:43:19.954Z,68.28
2022-09-14T01:45:54.518Z,68.80
2022-09-14T01:48:37.176Z,68.98
2022-09-14T01:51:10.503Z,68.40
2022-09-14T01:54:05.389Z,68.71
2022-09-14T01:56:39.031Z,69.00
2022-09-14T01:59:21.132Z,68.83
2022-09-14T02:02:02.816Z,68.71
2022-09-14T02:05:13.449Z,69.29
2022-09-14T02:07:41.059Z,68.70
2022-09-14T02:10:12.421Z,68.76
2022-09-14T02:12:40.901Z,69.34
2022-09-14T02:15:11.231Z,69.60
2022-09-14T02:17:39.488Z,69.56
2022-09-14T02:20:13.580Z,69.51
2022-09-14T02:22:41.593Z,69.78
2022-09-14T02:25:09.201Z,69.66
2022-09-14T02:27:36.623Z,69.86
2022-09-14T02:30:04.852Z,70.59
2022-09-14T02:32:32.187Z,70.45
2022-09-14T02:35:36.292Z,69.81
2022-09-14T02:38:16.167Z,69.72
2022-09-14T02:41:03.090Z,69.99
2022-09-14T02:43:33.720Z,70.28
2022-09-14T02:46:23.487Z,69.75
2022-09-14T02:48:54.236Z,69.75
2022-09-14T02:51:31.393Z,69.83
2022-09-14T02:54:25.439Z,69.90
2022-09-14T02:56:52.900Z,70.46
2022-09-14T02:59:20.677Z,70.34
2022-09-14T03:01:48.122Z,70.78
2022-09-14T03:04:15.677Z,71.12
2022-09-14T03:06:43.449Z,71.19
2022-09-14T03:09:10.858Z,71.14
2022-09-14T03:11:38.359Z,71.50
2022-09-14T03:14:06.097Z,71.75
2022-09-14T03:16:33.523Z,71.79
2022-09-14T03:19:00.979Z,71.93
2022-09-14T03:21:28.710Z,72.07
2022-09-14T03:23:57.873Z,72.03
2022-09-14T03:26:27.515Z,71.97
2022-09-14T03:28:57.976Z,72.26
2022-09-14T03:31:26.602Z,72.37
2022-09-14T03:33:56.817Z,72.12
2022-09-14T03:36:26.650Z,72.43
2022-09-14T03:38:55.777Z,72.42
2022-09-14T03:41:24.494Z,72.51
2022-09-14T03:43:52.581Z,72.47
2022-09-14T03:46:22.583Z,72.50
2022-09-14T03:48:50.724Z,72.43
2022-09-14T03:51:18.704Z,72.68
2022-09-14T03:53:46.555Z,73.09
2022-09-14T03:56:19.498Z,73.28
2022-09-14T03:58:48.696Z,73.11
2022-09-14T04:01:18.553Z,73.63
2022-09-14T04:03:47.177Z,74.11
2022-09-14T04:06:16.109Z,74.58
2022-09-14T04:08:44.982Z,74.42
2022-09-14T04:11:21.764Z,74.43
2022-09-14T04:13:50.159Z,75.17
2022-09-14T04:16:20.856Z,74.56
2022-09-14T04:18:49.133Z,74.78
2022-09-14T04:21:19.664Z,74.72
2022-09-14T04:24:14.731Z,74.50
2022-09-14T04:26:35.694Z,74.67
2022-09-14T04:29:04.334Z,74.82
2022-09-14T04:31:32.417Z,74.84
2022-09-14T04:33:59.893Z,74.58
2022-09-14T04:36:31.001Z,74.74
2022-09-14T04:39:00.922Z,74.61
2022-09-14T04:41:30.597Z,74.92
2022-09-14T04:43:59.247Z,74.78
2022-09-14T04:46:32.268Z,75.28
2022-09-14T04:49:00.022Z,74.95
2022-09-14T04:51:29.877Z,74.96
2022-09-14T04:53:59.311Z,75.31
2022-09-14T04:56:28.777Z,75.32
2022-09-14T04:58:58.892Z,75.45
2022-09-14T05:01:30.652Z,75.46
2022-09-14T05:03:58.895Z,75.78
2022-09-14T05:06:28.980Z,76.04
2022-09-14T05:08:57.407Z,76.16
2022-09-14T05:11:30.655Z,75.77
2022-09-14T05:14:00.005Z,76.13
2022-09-14T05:16:36.144Z,76.38
2022-09-14T05:19:06.804Z,76.25
2022-09-14T05:21:36.360Z,76.22
2022-09-14T05:24:08.462Z,75.75
2022-09-14T05:26:35.856Z,75.41
2022-09-14T05:29:03.755Z,74.67
2022-09-14T05:31:32.482Z,74.42
2022-09-14T05:34:00.274Z,73.79
2022-09-14T05:36:27.666Z,73.34
2022-09-14T05:38:55.391Z,72.94
2022-09-14T05:41:22.773Z,72.60
2022-09-14T05:43:50.164Z,72.26
2022-09-14T05:46:22.341Z,71.84
2022-09-14T05:48:51.884Z,71.62
2022-09-14T05:51:22.770Z,71.37
2022-09-14T05:53:52.642Z,71.33
2022-09-14T05:56:21.854Z,71.31
2022-09-14T05:58:49.798Z,71.07
2022-09-14T06:01:26.227Z,70.24
2022-09-14T06:03:55.567Z,70.36
2022-09-14T06:06:23.711Z,70.02
2022-09-14T06:08:56.354Z,69.70
2022-09-14T06:11:28.609Z,69.34
2022-09-14T06:13:57.275Z,68.56
2022-09-14T06:16:26.411Z,67.81
2022-09-14T06:18:55.838Z,66.65
2022-09-14T06:21:23.509Z,65.51
2022-09-14T06:23:52.023Z,65.09
2022-09-14T06:26:19.898Z,64.41
2022-09-14T06:28:47.576Z,63.67
2022-09-14T06:31:17.762Z,62.75
2022-09-14T06:33:46.213Z,62.26
2022-09-14T06:36:19.756Z,61.90
2022-09-14T06:38:51.756Z,61.17
2022-09-14T06:41:22.335Z,60.52
2022-09-14T06:43:50.642Z,60.52
2022-09-14T06:46:20.826Z,59.49
2022-09-14T06:48:51.122Z,58.83
2022-09-14T06:51:20.353Z,58.12
2022-09-14T06:53:49.642Z,57.84
2022-09-14T06:56:18.191Z,56.88
2022-09-14T06:58:46.420Z,57.35
2022-09-14T07:01:15.799Z,57.21
2022-09-14T07:03:44.719Z,56.51
2022-09-14T07:06:17.750Z,56.05
2022-09-14T07:08:45.400Z,55.50
2022-09-14T07:11:14.697Z,55.25
2022-09-14T07:13:42.126Z,55.33
2022-09-14T07:16:09.640Z,55.79
2022-09-14T07:18:37.608Z,55.23
2022-09-14T07:21:08.081Z,55.17
2022-09-14T07:23:37.821Z,55.28
2022-09-14T07:26:11.824Z,55.60
2022-09-14T07:28:40.437Z,54.90
2022-09-14T07:31:25.073Z,55.03
2022-09-14T07:33:55.089Z,55.57
2022-09-14T07:36:24.996Z,55.56
2022-09-14T07:38:53.634Z,54.02
2022-09-14T07:41:22.723Z,51.94
2022-09-14T07:43:51.904Z,50.67
2022-09-14T07:46:20.484Z,49.85
2022-09-14T07:48:49.154Z,49.49
2022-09-14T07:51:16.955Z,49.47
2022-09-14T07:53:44.410Z,49.66
2022-09-14T07:56:13.587Z,49.03
2022-09-14T07:58:42.114Z,48.93
2022-09-14T08:01:12.688Z,49.15
2022-09-14T08:03:42.323Z,49.81
2022-09-14T08:06:13.147Z,49.10
2022-09-14T08:08:42.927Z,49.62
2022-09-14T08:11:16.243Z,47.57
2022-09-14T08:13:46.427Z,47.64
2022-09-14T08:16:13.918Z,47.86
2022-09-14T08:18:41.591Z,47.37
2022-09-14T08:21:11.250Z,46.09
2022-09-14T08:23:39.335Z,45.84
2022-09-14T08:26:14.425Z,43.88
2022-09-14T08:28:42.452Z,43.40
2022-09-14T08:31:13.758Z,42.72
2022-09-14T08:33:46.896Z,42.11
2022-09-14T08:36:17.323Z,42.44
2022-09-14T08:38:44.579Z,41.68
2022-09-14T08:41:18.227Z,41.30
2022-09-14T08:43:45.835Z,40.67
2022-09-14T08:46:30.423Z,40.04
2022-09-14T08:49:00.364Z,40.46
2022-09-14T08:51:28.304Z,40.19
2022-09-14T08:53:59.488Z,40.88
2022-09-14T08:56:33.723Z,41.37
2022-09-14T08:59:15.201Z,41.71
2022-09-14T09:01:48.623Z,41.78
2022-09-14T09:04:53.464Z,42.43
2022-09-14T09:07:32.610Z,41.99
2022-09-14T09:10:00.095Z,40.15
2022-09-14T09:12:36.216Z,38.87
2022-09-14T09:15:15.323Z,38.94
2022-09-14T09:17:47.200Z,37.00
2022-09-14T09:20:23.597Z,36.90
2022-09-14T09:23:01.360Z,37.19
2022-09-14T09:25:46.111Z,37.33
2022-09-14T09:28:15.133Z,37.46
2022-09-14T09:30:45.082Z,37.22
2022-09-14T09:33:17.547Z,37.33
2022-09-14T09:35:45.390Z,36.86
2022-09-14T09:38:17.408Z,36.18
2022-09-14T09:40:56.460Z,35.57
2022-09-14T09:43:38.930Z,36.45
2022-09-14T09:46:12.530Z,36.50
2022-09-14T09:48:45.236Z,37.25
2022-09-14T09:51:13.943Z,37.15
2022-09-14T09:53:57.106Z,37.42
2022-09-14T09:56:28.282Z,37.53
2022-09-14T09:58:56.059Z,37.74
2022-09-14T10:01:33.709Z,37.15
2022-09-14T10:04:16.842Z,37.31
2022-09-14T10:06:49.580Z,37.76
2022-09-14T10:09:28.302Z,37.28
2022-09-14T10:12:04.443Z,37.28
2022-09-14T10:14:34.989Z,36.41
2022-09-14T10:17:16.140Z,36.80
2022-09-14T10:19:52.353Z,36.36
2022-09-14T10:22:33.123Z,35.88
2022-09-14T10:25:22.254Z,35.88
2022-09-14T10:27:59.481Z,35.99
2022-09-14T10:30:34.605Z,36.52
2022-09-14T10:33:04.163Z,36.25
2022-09-14T10:36:07.285Z,36.33
2022-09-14T10:39:01.263Z,36.58
2022-09-14T10:41:34.239Z,35.99
2022-09-14T10:44:35.707Z,36.20
2022-09-14T10:47:25.090Z,36.34
2022-09-14T10:50:07.550Z,36.16
2022-09-14T10:52:41.391Z,36.12
2022-09-14T10:55:31.818Z,36.44
2022-09-14T10:58:21.222Z,36.71
2022-09-14T11:01:16.363Z,36.82
2022-09-14T11:03:59.349Z,37.32
2022-09-14T11:07:17.578Z,37.92
2022-09-14T11:09:51.960Z,37.54
2022-09-14T11:13:00.587Z,37.76
2022-09-14T11:15:45.891Z,37.91
2022-09-14T11:18:38.608Z,38.31
2022-09-14T11:21:45.076Z,39.27
2022-09-14T11:24:26.016Z,39.42
2022-09-14T11:27:05.213Z,39.85
2022-09-14T11:29:44.566Z,40.01
2022-09-14T11:32:21.722Z,40.36
2022-09-14T11:34:58.181Z,39.79
2022-09-14T11:37:56.588Z,39.88
2022-09-14T11:40:30.865Z,40.34
2022-09-14T11:43:13.288Z,39.59
2022-09-14T11:45:48.341Z,39.56
2022-09-14T11:48:42.422Z,39.63
2022-09-14T11:51:17.366Z,38.59
2022-09-14T11:53:46.570Z,38.74
2022-09-14T11:56:34.011Z,39.38
2022-09-14T11:59:06.625Z,39.65
2022-09-14T12:01:39.211Z,39.88
2022-09-14T12:04:15.139Z,40.37
2022-09-14T12:06:51.506Z,40.80
2022-09-14T12:09:21.078Z,41.61
2022-09-14T12:11:54.169Z,41.68
2022-09-14T12:14:24.540Z,42.14
2022-09-14T12:17:41.158Z,42.22
2022-09-14T12:20:27.571Z,42.45
2022-09-14T12:23:27.717Z,42.18
2022-09-14T12:25:58.285Z,42.11
2022-09-14T12:28:34.868Z,41.54
2022-09-14T12:31:05.182Z,41.70
2022-09-14T12:33:32.887Z,41.52
2022-09-14T12:36:07.238Z,41.22
2022-09-14T12:38:37.961Z,40.38
2022-09-14T12:41:11.118Z,40.33
2022-09-14T12:43:41.908Z,40.26
2022-09-14T12:46:21.619Z,40.67
2022-09-14T12:48:49.576Z,41.44
2022-09-14T12:51:31.191Z,41.95
2022-09-14T12:53:59.127Z,42.49
2022-09-14T12:56:45.175Z,42.86
2022-09-14T12:59:18.635Z,43.66
2022-09-14T13:02:15.854Z,43.81
2022-09-14T13:04:45.818Z,44.44
2022-09-14T13:07:16.248Z,44.63
2022-09-14T13:09:50.654Z,44.56
2022-09-14T13:12:31.762Z,44.85
2022-09-14T13:15:03.220Z,45.00
2022-09-14T13:17:30.707Z,45.26
2022-09-14T13:20:01.009Z,45.77
2022-09-14T13:22:31.790Z,46.15
2022-09-14T13:25:01.601Z,46.31
2022-09-14T13:27:38.489Z,46.09
2022-09-14T13:30:12.079Z,45.99
2022-09-14T13:32:43.201Z,45.60
2022-09-14T13:35:29.632Z,45.77
2022-09-14T13:37:59.384Z,45.42
2022-09-14T13:40:29.986Z,45.56
2022-09-14T13:42:59.357Z,45.77
2022-09-14T13:45:27.226Z,45.88
2022-09-14T13:47:54.890Z,45.89
2022-09-14T13:50:25.478Z,46.13
2022-09-14T13:53:03.136Z,46.01
2022-09-14T13:55:32.103Z,46.03
2022-09-14T13:58:12.205Z,45.85
2022-09-14T14:01:03.646Z,45.43
2022-09-14T14:03:31.496Z,45.77
2022-09-14T14:05:59.876Z,45.49
2022-09-14T14:08:27.257Z,45.55
2022-09-14T14:10:55.643Z,45.71
2022-09-14T14:13:38.336Z,45.82
2022-09-14T14:16:24.471Z,46.16
2022-09-14T14:18:57.391Z,46.01
2022-09-14T14:21:31.432Z,46.07
2022-09-14T14:24:27.941Z,46.12
2022-09-14T14:26:57.563Z,46.17
2022-09-14T14:29:25.782Z,46.00
2022-09-14T14:31:55.941Z,46.36
2022-09-14T14:34:27.252Z,46.34
2022-09-14T14:36:56.061Z,46.29
2022-09-14T14:39:25.487Z,46.52
2022-09-14T14:41:53.708Z,46.32
2022-09-14T14:44:24.848Z,46.31
2022-09-14T14:46:52.619Z,46.09
2022-09-14T14:49:23.827Z,45.86
2022-09-14T14:51:51.274Z,45.67
2022-09-14T14:54:19.283Z,45.28
2022-09-14T14:56:48.927Z,45.52
2022-09-14T14:59:25.559Z,44.73
2022-09-14T15:01:54.075Z,44.46
2022-09-14T15:04:21.914Z,44.02
2022-09-14T15:21:47.508Z,42.25
2022-09-14T15:24:15.280Z,42.25
2022-09-14T15:26:42.731Z,43.75
2022-09-14T15:29:13.634Z,43.91
2022-09-14T15:31:41.417Z,44.05
2022-09-14T15:34:08.892Z,44.27
2022-09-14T15:36:38.983Z,44.23
2022-09-14T15:39:09.517Z,44.45
2022-09-14T15:41:36.979Z,44.63
2022-09-14T15:44:04.809Z,44.66
2022-09-14T15:46:32.475Z,44.82
2022-09-14T15:49:05.116Z,44.92
2022-09-14T15:51:33.763Z,44.92
2022-09-14T15:54:02.231Z,45.08
2022-09-14T15:56:30.428Z,45.33
2022-09-14T15:58:59.991Z,45.54
2022-09-14T16:01:29.206Z,45.81
2022-09-14T16:04:02.749Z,46.16
2022-09-14T16:06:31.016Z,46.51
2022-09-14T16:09:02.047Z,46.65
2022-09-14T16:11:29.453Z,46.89
2022-09-14T16:13:56.970Z,47.26
2022-09-14T16:16:25.113Z,47.63
2022-09-14T16:18:52.955Z,48.01
2022-09-14T16:21:23.880Z,48.29
2022-09-14T16:23:54.644Z,48.44
2022-09-14T16:26:25.428Z,48.75
2022-09-14T16:28:54.516Z,48.97
2022-09-14T16:31:24.931Z,49.02
2022-09-14T16:33:55.389Z,49.26
2022-09-14T16:36:27.892Z,49.60
2022-09-14T16:38:57.595Z,49.34
2022-09-14T16:41:25.722Z,49.44
2022-09-14T16:43:56.167Z,49.75
2022-09-14T16:46:25.169Z,49.98
2022-09-14T16:48:52.850Z,49.94
2022-09-14T16:51:23.306Z,50.25
2022-09-14T16:53:52.280Z,50.72
2022-09-14T16:56:25.276Z,50.81
2022-09-14T16:58:55.178Z,50.79
2022-09-14T17:01:37.062Z,51.11
2022-09-14T17:04:11.581Z,51.43
2022-09-14T17:06:41.525Z,51.42
2022-09-14T17:09:12.713Z,51.36
2022-09-14T17:11:41.297Z,52.11
2022-09-14T17:14:17.115Z,52.88
2022-09-14T17:16:45.013Z,52.64
2022-09-14T17:19:13.672Z,52.30
2022-09-14T17:21:42.963Z,52.36
2022-09-14T17:24:11.512Z,53.21
2022-09-14T17:26:39.266Z,53.56
2022-09-14T17:29:07.084Z,53.13
2022-09-14T17:31:37.060Z,52.80
2022-09-14T17:34:07.412Z,54.27
2022-09-14T17:36:35.254Z,53.96
2022-09-14T17:39:09.205Z,54.25
2022-09-14T17:41:40.018Z,54.12
2022-09-14T17:44:11.141Z,54.43
2022-09-14T17:46:47.137Z,54.44
2022-09-14T17:49:18.520Z,54.57
2022-09-14T17:51:46.699Z,54.87
2022-09-14T17:54:14.106Z,54.32
2022-09-14T17:56:41.607Z,55.05
2022-09-14T17:59:15.380Z,55.11
2022-09-14T18:01:42.791Z,55.08
2022-09-14T18:04:13.088Z,54.86
2022-09-14T18:06:44.232Z,54.81
2022-09-14T18:09:18.467Z,54.60
2022-09-14T18:11:47.911Z,54.76
2022-09-14T18:14:16.888Z,55.33
2022-09-14T18:16:45.754Z,55.32
2022-09-14T18:19:15.063Z,55.42
2022-09-14T18:21:52.163Z,55.13
2022-09-14T18:24:21.395Z,55.24
2022-09-14T18:26:50.466Z,55.32
2022-09-14T18:29:21.245Z,56.71
2022-09-14T18:31:51.330Z,56.03
2022-09-14T18:34:20.461Z,55.99
2022-09-14T18:36:48.152Z,55.66
2022-09-14T18:39:16.086Z,55.91
2022-09-14T18:41:44.295Z,55.84
2022-09-14T18:44:11.732Z,55.93
2022-09-14T18:46:39.688Z,56.30
2022-09-14T18:49:07.113Z,56.08
2022-09-14T18:51:34.547Z,56.30
2022-09-14T18:54:05.691Z,56.68
2022-09-14T18:56:34.813Z,56.74
2022-09-14T18:59:04.133Z,56.80
2022-09-14T19:01:33.620Z,57.08
2022-09-14T19:04:06.626Z,57.17
2022-09-14T19:06:36.344Z,57.08
2022-09-14T19:09:05.470Z,57.58
2022-09-14T19:11:35.186Z,57.47
2022-09-14T19:14:09.371Z,57.45
2022-09-14T19:16:40.715Z,57.59
2022-09-14T19:19:14.737Z,57.97
2022-09-14T19:21:43.193Z,57.95
2022-09-14T19:24:14.512Z,58.13
2022-09-14T19:26:50.435Z,58.37
2022-09-14T19:29:21.612Z,58.33
2022-09-14T19:31:51.676Z,58.17
2022-09-14T19:34:21.192Z,58.12
2022-09-14T19:36:48.896Z,57.99
2022-09-14T19:39:16.738Z,59.02
2022-09-14T19:41:44.491Z,59.00
2022-09-14T19:44:12.874Z,58.29
2022-09-14T19:46:40.542Z,58.40
2022-09-14T19:49:14.874Z,58.20
2022-09-14T19:51:43.204Z,58.03
2022-09-14T19:54:11.479Z,58.13
2022-09-14T19:56:40.603Z,57.93
2022-09-14T19:59:08.493Z,57.86
2022-09-14T20:01:38.253Z,57.73
2022-09-14T20:04:07.636Z,57.69
2022-09-14T20:06:40.685Z,58.10
2022-09-14T20:09:17.962Z,58.00
2022-09-14T20:11:47.586Z,58.17
2022-09-14T20:14:18.162Z,57.76
2022-09-14T20:19:16.951Z,57.41
2022-09-14T20:21:45.648Z,57.34
2022-09-14T20:24:19.286Z,57.51
2022-09-14T20:26:49.069Z,57.43
2022-09-14T20:29:18.121Z,57.35
2022-09-14T20:31:46.474Z,57.23
2022-09-14T20:34:16.451Z,57.30
2022-09-14T20:36:44.215Z,57.36
2022-09-14T20:39:11.748Z,57.37
2022-09-14T20:41:39.840Z,57.51
2022-09-14T20:44:07.743Z,57.76
2022-09-14T20:46:39.187Z,57.85
2022-09-14T20:49:11.418Z,57.97
2022-09-14T20:51:39.788Z,58.08
2022-09-14T20:54:09.956Z,58.02
2022-09-14T20:56:37.390Z,58.15
2022-09-14T20:59:07.300Z,58.00
2022-09-14T21:01:36.845Z,58.16
2022-09-14T21:04:08.156Z,57.84
2022-09-14T21:06:38.361Z,57.88
2022-09-14T21:09:07.227Z,57.85
2022-09-14T21:11:35.350Z,57.80
2022-09-14T21:14:03.668Z,57.72
2022-09-14T21:16:43.731Z,57.89
2022-09-14T21:19:23.654Z,57.91
2022-09-14T21:21:51.902Z,57.92
2022-09-14T21:24:21.424Z,57.83
2022-09-14T21:26:49.247Z,57.78
2022-09-14T21:29:20.876Z,58.01
2022-09-14T21:31:48.885Z,57.81
2022-09-14T21:34:16.735Z,57.72
2022-09-14T21:36:48.320Z,57.97
2022-09-14T21:39:19.404Z,57.80
2022-09-14T21:41:49.031Z,57.69
2022-09-14T21:44:17.214Z,57.64
2022-09-14T21:46:44.668Z,57.68
2022-09-14T21:49:18.105Z,57.66
2022-09-14T21:51:46.922Z,57.59
2022-09-14T21:54:15.114Z,57.67
2022-09-14T21:56:44.556Z,57.61
2022-09-14T21:59:15.128Z,57.66
2022-09-14T22:01:43.186Z,57.67
2022-09-14T22:04:15.631Z,57.55
2022-09-14T22:06:45.171Z,57.74
2022-09-14T22:09:17.347Z,58.10
2022-09-14T22:11:45.117Z,58.04
2022-09-14T22:25:15.685Z,58.62
2022-09-14T22:27:43.375Z,58.64
2022-09-14T22:30:11.267Z,58.76
2022-09-14T22:32:38.652Z,58.65
2022-09-14T22:35:06.752Z,58.46
2022-09-14T22:37:34.122Z,58.36
2022-09-14T22:40:01.916Z,58.32
2022-09-14T22:42:31.516Z,58.13
2022-09-14T22:44:58.919Z,58.26
2022-09-14T22:47:26.297Z,57.90
2022-09-14T22:49:53.961Z,57.75
2022-09-14T22:52:21.396Z,57.50
2022-09-14T22:54:48.796Z,57.42
2022-09-14T22:57:16.749Z,57.19
2022-09-14T22:59:44.126Z,57.12
2022-09-14T23:02:11.558Z,57.08
2022-09-14T23:04:39.295Z,56.95
2022-09-14T23:07:08.278Z,56.74
2022-09-14T23:09:35.700Z,56.62
2022-09-14T23:12:03.618Z,56.50
2022-09-14T23:14:31.981Z,56.32
2022-09-14T23:16:59.572Z,56.09
2022-09-14T23:19:27.456Z,56.08
2022-09-14T23:21:54.791Z,55.44
2022-09-14T23:24:22.234Z,55.34
2022-09-14T23:26:49.933Z,55.17
2022-09-14T23:29:17.496Z,55.11
2022-09-14T23:31:45.452Z,55.18
2022-09-14T23:34:14.012Z,55.15
2022-09-14T23:36:41.524Z,54.83
2022-09-14T23:39:09.204Z,54.66
2022-09-14T23:41:37.112Z,54.89
2022-09-14T23:44:04.773Z,55.05
2022-09-14T23:46:32.218Z,55.01
2022-09-14T23:48:59.972Z,55.02
2022-09-14T23:51:27.393Z,55.14
2022-09-14T23:53:54.797Z,55.39
2022-09-14T23:56:22.693Z,55.22
2022-09-14T23:58:50.281Z,55.08
